createdAt,value
2019-01-10T00:00:19.909Z,99.90
2019-01-10T00:02:48.987Z,99.90
2019-01-10T00:05:16.611Z,99.90
2019-01-10T00:07:43.804Z,99.90
2019-01-10T00:10:13.789Z,99.90
2019-01-10T00:12:40.821Z,99.90
2019-01-10T00:15:10.944Z,99.90
2019-01-10T00:17:38.083Z,99.90
2019-01-10T00:20:05.861Z,99.90
2019-01-10T00:22:33.247Z,99.90
2019-01-10T00:25:00.240Z,99.90
2019-01-10T00:27:27.203Z,99.90
2019-01-10T00:29:54.471Z,99.90
2019-01-10T00:32:21.467Z,99.90
2019-01-10T00:34:49.014Z,99.90
2019-01-10T00:37:16.159Z,99.90
2019-01-10T00:39:43.312Z,99.90
2019-01-10T00:42:10.631Z,99.90
2019-01-10T00:44:38.400Z,99.90
2019-01-10T00:47:06.164Z,99.90
2019-01-10T00:49:33.662Z,99.90
2019-01-10T00:52:00.667Z,99.90
2019-01-10T00:54:28.311Z,99.90
2019-01-10T00:56:55.434Z,99.90
2019-01-10T00:59:22.859Z,99.90
2019-01-10T01:01:49.753Z,99.90
2019-01-10T01:04:17.100Z,99.90
2019-01-10T01:06:44.791Z,99.90
2019-01-10T01:09:12.656Z,99.90
2019-01-10T01:11:39.928Z,99.90
2019-01-10T01:14:08.357Z,99.90
2019-01-10T01:16:35.395Z,99.90
2019-01-10T01:19:02.810Z,99.90
2019-01-10T01:21:29.858Z,99.90
2019-01-10T01:23:57.250Z,99.90
2019-01-10T01:26:24.577Z,99.90
2019-01-10T01:28:51.472Z,99.90
2019-01-10T01:31:18.403Z,99.90
2019-01-10T01:33:45.294Z,99.90
2019-01-10T01:36:12.259Z,99.90
2019-01-10T01:38:39.790Z,99.90
2019-01-10T01:41:07.675Z,99.90
2019-01-10T01:43:35.423Z,99.90
2019-01-10T01:46:02.527Z,99.90
2019-01-10T01:48:29.697Z,99.90
2019-01-10T01:50:57.042Z,99.90
2019-01-10T01:53:23.971Z,99.90
2019-01-10T01:55:51.182Z,99.90
2019-01-10T01:58:18.662Z,99.90
2019-01-10T02:00:46.390Z,99.90
2019-01-10T02:03:13.765Z,99.90
2019-01-10T02:05:41.009Z,99.90
2019-01-10T02:08:08.976Z,99.90
2019-01-10T02:10:36.111Z,99.90
2019-01-10T02:13:03.580Z,99.90
2019-01-10T02:15:30.635Z,99.90
2019-01-10T02:17:58.330Z,99.90
2019-01-10T02:20:25.741Z,99.90
2019-01-10T02:22:53.361Z,99.90
2019-01-10T02:25:20.592Z,99.90
2019-01-10T02:27:47.819Z,99.90
2019-01-10T02:30:25.931Z,99.90
2019-01-10T02:32:53.230Z,99.90
2019-01-10T02:35:20.495Z,99.90
2019-01-10T02:37:48.621Z,99.90
2019-01-10T02:40:17.578Z,99.90
2019-01-10T02:42:45.057Z,99.90
2019-01-10T02:45:13.277Z,99.90
2019-01-10T02:47:41.091Z,99.90
2019-01-10T02:50:11.936Z,99.90
2019-01-10T02:52:39.183Z,99.90
2019-01-10T02:55:06.627Z,99.90
2019-01-10T02:57:33.638Z,99.90
2019-01-10T03:00:00.706Z,99.90
2019-01-10T03:02:29.222Z,99.90
2019-01-10T03:04:56.475Z,99.90
2019-01-10T03:07:23.371Z,99.90
2019-01-10T03:09:51.107Z,99.90
2019-01-10T03:15:08.077Z,99.90
2019-01-10T03:17:35.775Z,99.90
2019-01-10T03:20:04.904Z,99.90
2019-01-10T03:22:32.174Z,99.90
2019-01-10T03:24:59.379Z,99.90
2019-01-10T03:27:26.277Z,99.90
2019-01-10T03:29:53.323Z,99.90
2019-01-10T03:32:20.823Z,99.90
2019-01-10T03:34:48.003Z,99.90
2019-01-10T03:37:15.276Z,99.90
2019-01-10T03:39:42.294Z,99.90
2019-01-10T03:42:10.050Z,99.90
2019-01-10T03:44:37.393Z,99.90
2019-01-10T03:47:04.325Z,99.90
2019-01-10T03:49:31.217Z,99.90
2019-01-10T03:51:58.662Z,99.90
2019-01-10T03:54:26.119Z,99.90
2019-01-10T03:56:54.263Z,99.90
2019-01-10T03:59:21.755Z,99.90
2019-01-10T04:01:48.681Z,99.90
2019-01-10T04:04:16.046Z,99.90
2019-01-10T04:06:43.189Z,99.90
2019-01-10T04:09:10.957Z,99.90
2019-01-10T04:11:37.957Z,99.90
2019-01-10T04:14:05.122Z,99.90
2019-01-10T04:16:32.538Z,99.90
2019-01-10T04:19:00.719Z,99.90
2019-01-10T04:21:27.945Z,99.90
2019-01-10T04:23:54.859Z,99.90
2019-01-10T04:26:21.906Z,99.90
2019-01-10T04:28:49.798Z,99.90
2019-01-10T04:31:16.816Z,99.90
2019-01-10T04:33:44.066Z,99.90
2019-01-10T04:36:11.266Z,99.90
2019-01-10T04:38:38.701Z,99.90
2019-01-10T04:41:05.912Z,99.90
2019-01-10T04:43:33.509Z,99.90
2019-01-10T04:46:01.484Z,99.90
2019-01-10T04:48:28.947Z,99.90
2019-01-10T04:50:56.406Z,99.90
2019-01-10T04:53:23.298Z,99.90
2019-01-10T04:55:50.808Z,99.90
2019-01-10T04:58:17.967Z,99.90
2019-01-10T05:00:45.609Z,99.90
2019-01-10T05:03:13.017Z,99.90
2019-01-10T05:05:40.283Z,99.90
2019-01-10T05:08:07.562Z,99.90
2019-01-10T05:10:35.319Z,99.90
2019-01-10T05:13:02.655Z,99.90
2019-01-10T05:15:29.599Z,99.90
2019-01-10T05:17:56.573Z,99.90
2019-01-10T05:20:23.834Z,99.90
2019-01-10T05:22:50.774Z,99.90
2019-01-10T05:25:18.146Z,99.90
2019-01-10T05:27:45.487Z,99.90
2019-01-10T05:30:16.330Z,99.90
2019-01-10T05:32:43.608Z,99.90
2019-01-10T05:35:10.848Z,99.90
2019-01-10T05:37:38.514Z,99.90
2019-01-10T05:40:07.805Z,99.90
2019-01-10T05:42:35.063Z,99.90
2019-01-10T05:45:02.543Z,99.90
2019-01-10T05:47:29.670Z,99.90
2019-01-10T05:49:57.751Z,99.90
2019-01-10T05:52:24.710Z,99.90
2019-01-10T05:54:51.624Z,99.90
2019-01-10T05:57:18.633Z,99.90
2019-01-10T05:59:46.352Z,99.90
2019-01-10T06:02:14.000Z,99.90
2019-01-10T06:04:40.911Z,99.90
2019-01-10T06:07:08.436Z,99.90
2019-01-10T06:09:35.860Z,99.90
2019-01-10T06:12:04.555Z,99.90
2019-01-10T06:14:35.652Z,99.90
2019-01-10T06:17:00.350Z,99.90
2019-01-10T06:19:27.281Z,99.90
2019-01-10T06:21:54.510Z,99.90
2019-01-10T06:24:21.940Z,99.90
2019-01-10T06:26:49.103Z,99.90
2019-01-10T06:29:16.382Z,99.90
2019-01-10T06:31:43.699Z,99.90
2019-01-10T06:34:11.155Z,99.90
2019-01-10T06:36:38.534Z,99.90
2019-01-10T06:39:06.966Z,99.90
2019-01-10T06:41:33.895Z,99.90
2019-01-10T06:44:00.854Z,99.90
2019-01-10T06:46:31.194Z,99.90
2019-01-10T06:48:58.368Z,99.90
2019-01-10T06:51:25.917Z,99.90
2019-01-10T06:53:53.143Z,99.90
2019-01-10T06:56:20.678Z,99.90
2019-01-10T06:58:48.089Z,99.90
2019-01-10T07:01:15.196Z,99.90
2019-01-10T07:03:42.407Z,99.90
2019-01-10T07:06:10.763Z,99.90
2019-01-10T07:08:38.758Z,99.90
2019-01-10T07:11:06.394Z,99.90
2019-01-10T07:13:35.380Z,99.90
2019-01-10T07:16:03.097Z,99.90
2019-01-10T07:18:30.263Z,99.90
2019-01-10T07:20:57.667Z,99.90
2019-01-10T07:23:24.964Z,99.90
2019-01-10T07:25:54.635Z,99.90
2019-01-10T07:28:25.563Z,99.90
2019-01-10T07:30:54.763Z,99.90
2019-01-10T07:33:22.970Z,99.90
2019-01-10T07:35:57.618Z,99.90
2019-01-10T07:38:25.388Z,99.90
2019-01-10T07:40:52.696Z,99.90
2019-01-10T07:43:21.715Z,99.90
2019-01-10T07:45:48.869Z,99.90
2019-01-10T07:48:16.700Z,99.90
2019-01-10T07:50:44.528Z,99.90
2019-01-10T07:53:16.226Z,99.90
2019-01-10T07:55:43.662Z,99.90
2019-01-10T07:58:11.142Z,99.90
2019-01-10T08:00:38.611Z,99.90
2019-01-10T08:03:06.037Z,99.90
2019-01-10T08:05:33.608Z,99.90
2019-01-10T08:08:01.055Z,99.90
2019-01-10T08:10:28.716Z,99.90
2019-01-10T08:12:56.196Z,99.90
2019-01-10T08:15:23.455Z,99.90
2019-01-10T08:17:51.398Z,99.90
2019-01-10T08:20:19.068Z,99.90
2019-01-10T08:22:46.169Z,99.90
2019-01-10T08:25:13.571Z,99.90
2019-01-10T08:27:41.143Z,99.90
2019-01-10T08:30:12.246Z,99.90
2019-01-10T08:32:40.021Z,99.90
2019-01-10T08:35:07.762Z,99.90
2019-01-10T08:37:35.254Z,99.90
2019-01-10T08:40:03.055Z,99.90
2019-01-10T08:42:31.985Z,99.90
2019-01-10T08:45:00.288Z,99.90
2019-01-10T08:47:27.548Z,99.90
2019-01-10T08:49:54.532Z,99.90
2019-01-10T08:52:21.455Z,99.90
2019-01-10T08:54:48.457Z,99.90
2019-01-10T08:57:16.150Z,99.90
2019-01-10T08:59:43.606Z,99.90
2019-01-10T09:02:11.070Z,99.90
2019-01-10T09:04:38.318Z,99.90
2019-01-10T09:07:05.507Z,99.90
2019-01-10T09:09:32.663Z,99.90
2019-01-10T09:11:59.941Z,99.90
2019-01-10T09:14:27.352Z,99.90
2019-01-10T09:16:54.734Z,99.90
2019-01-10T09:19:22.039Z,99.90
2019-01-10T09:21:49.403Z,99.90
2019-01-10T09:24:16.412Z,99.90
2019-01-10T09:26:43.804Z,99.90
2019-01-10T09:29:11.360Z,99.90
2019-01-10T09:31:38.464Z,99.90
2019-01-10T09:34:05.868Z,99.90
2019-01-10T09:36:33.321Z,99.90
2019-01-10T09:39:01.394Z,99.90
2019-01-10T09:41:30.994Z,99.90
2019-01-10T09:43:58.354Z,99.90
2019-01-10T09:46:25.842Z,99.90
2019-01-10T09:48:52.822Z,99.90
2019-01-10T09:51:20.374Z,99.90
2019-01-10T09:53:47.383Z,99.90
2019-01-10T09:56:14.623Z,99.90
2019-01-10T09:58:41.975Z,99.90
2019-01-10T10:01:09.432Z,99.90
2019-01-10T10:03:37.223Z,99.90
2019-01-10T10:06:07.925Z,99.90
2019-01-10T10:08:33.734Z,99.90
2019-01-10T10:11:01.103Z,99.90
2019-01-10T10:13:28.465Z,99.90
2019-01-10T10:15:55.618Z,99.90
2019-01-10T10:18:23.331Z,99.90
2019-01-10T10:20:50.332Z,99.90
2019-01-10T10:23:17.336Z,99.90
2019-01-10T10:25:44.354Z,99.90
2019-01-10T10:28:11.688Z,99.90
2019-01-10T10:30:39.025Z,99.90
2019-01-10T10:33:06.082Z,99.90
2019-01-10T10:35:33.216Z,99.90
2019-01-10T10:38:00.347Z,99.90
2019-01-10T10:40:27.364Z,99.90
2019-01-10T10:42:54.512Z,99.90
2019-01-10T10:45:22.234Z,99.90
2019-01-10T10:47:49.898Z,99.90
2019-01-10T10:50:21.130Z,99.90
2019-01-10T10:52:48.908Z,99.90
2019-01-10T10:55:16.498Z,99.90
2019-01-10T10:57:43.618Z,99.90
2019-01-10T11:00:15.457Z,99.90
2019-01-10T11:02:43.262Z,99.90
2019-01-10T11:05:10.703Z,99.90
2019-01-10T11:07:39.278Z,99.90
2019-01-10T11:10:08.358Z,99.90
2019-01-10T11:12:35.563Z,99.90
2019-01-10T11:15:04.024Z,99.90
2019-01-10T11:17:31.119Z,99.90
2019-01-10T11:19:58.514Z,99.90
2019-01-10T11:22:25.675Z,99.90
2019-01-10T11:24:53.446Z,99.90
2019-01-10T11:27:21.090Z,99.90
2019-01-10T11:29:48.483Z,99.90
2019-01-10T11:32:15.626Z,99.90
2019-01-10T11:34:42.980Z,99.90
2019-01-10T11:37:11.043Z,99.90
2019-01-10T11:39:38.166Z,99.90
2019-01-10T11:42:05.630Z,99.90
2019-01-10T11:44:33.275Z,99.90
2019-01-10T11:47:00.519Z,99.90
2019-01-10T11:49:27.631Z,99.90
2019-01-10T11:51:55.259Z,99.90
2019-01-10T11:54:22.786Z,99.90
2019-01-10T11:56:51.099Z,99.90
2019-01-10T11:59:19.777Z,99.90
2019-01-10T12:01:47.338Z,99.90
2019-01-10T12:04:14.470Z,99.90
2019-01-10T12:06:41.475Z,99.90
2019-01-10T12:09:08.715Z,99.90
2019-01-10T12:11:38.246Z,99.90
2019-01-10T12:14:05.690Z,99.90
2019-01-10T12:16:32.777Z,99.90
2019-01-10T12:19:00.361Z,99.90
2019-01-10T12:21:27.823Z,99.90
2019-01-10T12:23:55.074Z,99.90
2019-01-10T12:26:22.425Z,99.90
2019-01-10T12:28:49.582Z,99.90
2019-01-10T12:31:17.147Z,99.90
2019-01-10T12:33:44.743Z,99.90
2019-01-10T12:36:11.679Z,99.90
2019-01-10T12:38:39.008Z,99.90
2019-01-10T12:41:05.963Z,99.90
2019-01-10T12:43:32.979Z,99.90
2019-01-10T12:46:00.319Z,99.90
2019-01-10T12:48:27.315Z,99.90
2019-01-10T12:50:54.207Z,99.90
2019-01-10T12:53:21.122Z,99.90
2019-01-10T12:55:48.596Z,99.90
2019-01-10T12:58:15.994Z,99.90
2019-01-10T13:00:42.888Z,99.90
2019-01-10T13:03:09.922Z,99.90
2019-01-10T13:05:37.341Z,99.90
2019-01-10T13:08:04.471Z,99.90
2019-01-10T13:10:31.665Z,99.90
2019-01-10T13:12:58.905Z,99.90
2019-01-10T13:15:27.153Z,99.90
2019-01-10T13:17:54.770Z,99.70
2019-01-10T13:20:22.235Z,99.10
2019-01-10T13:22:49.380Z,99.20
2019-01-10T13:25:17.390Z,99.90
2019-01-10T13:27:45.085Z,99.50
2019-01-10T13:30:15.305Z,99.40
2019-01-10T13:32:42.700Z,99.60
2019-01-10T13:35:09.932Z,99.90
2019-01-10T13:37:38.286Z,99.90
2019-01-10T13:40:05.731Z,99.90
2019-01-10T13:42:32.934Z,99.90
2019-01-10T13:45:01.278Z,99.90
2019-01-10T13:47:28.835Z,99.90
2019-01-10T13:49:56.171Z,99.90
2019-01-10T13:52:23.754Z,99.90
2019-01-10T13:54:51.310Z,99.90
2019-01-10T13:57:19.080Z,99.90
2019-01-10T13:59:46.214Z,99.90
2019-01-10T14:02:14.012Z,99.90
2019-01-10T14:04:41.469Z,99.90
2019-01-10T14:07:08.797Z,99.90
2019-01-10T14:09:35.939Z,99.90
2019-01-10T14:12:03.030Z,99.90
2019-01-10T14:14:30.260Z,99.90
2019-01-10T14:17:01.596Z,99.90
2019-01-10T14:19:26.954Z,99.90
2019-01-10T14:21:54.691Z,99.90
2019-01-10T14:24:21.599Z,99.90
2019-01-10T14:26:49.187Z,99.90
2019-01-10T14:29:16.703Z,99.90
2019-01-10T14:31:43.802Z,99.90
2019-01-10T14:34:14.201Z,99.90
2019-01-10T14:36:40.174Z,99.90
2019-01-10T14:39:08.547Z,99.90
2019-01-10T14:41:35.704Z,99.90
2019-01-10T14:44:03.011Z,99.90
2019-01-10T14:46:30.271Z,99.90
2019-01-10T14:48:58.255Z,99.90
2019-01-10T14:51:25.645Z,99.90
2019-01-10T14:53:53.400Z,99.70
2019-01-10T14:56:20.639Z,99.90
2019-01-10T14:58:48.007Z,99.70
2019-01-10T15:01:15.819Z,99.30
2019-01-10T15:03:42.919Z,98.60
2019-01-10T15:06:11.189Z,99.10
2019-01-10T15:08:40.089Z,99.30
2019-01-10T15:11:08.076Z,99.10
2019-01-10T15:13:36.471Z,98.50
2019-01-10T15:16:05.047Z,99.20
2019-01-10T15:18:32.585Z,99.30
2019-01-10T15:21:00.216Z,99.10
2019-01-10T15:23:31.165Z,99.50
2019-01-10T15:26:01.037Z,99.90
2019-01-10T15:28:30.436Z,99.90
2019-01-10T15:31:00.886Z,99.90
2019-01-10T15:33:29.070Z,99.90
2019-01-10T15:35:56.494Z,99.90
2019-01-10T15:38:27.760Z,99.30
2019-01-10T15:40:55.247Z,98.70
2019-01-10T15:43:23.408Z,98.50
2019-01-10T15:45:50.829Z,99.20
2019-01-10T15:48:18.328Z,99.90
2019-01-10T15:50:45.885Z,98.80
2019-01-10T15:53:13.357Z,98.40
2019-01-10T15:55:41.251Z,97.80
2019-01-10T15:58:08.867Z,97.40
2019-01-10T16:00:35.906Z,96.60
2019-01-10T16:03:03.378Z,96.80
2019-01-10T16:08:25.429Z,96.40
2019-01-10T16:10:53.042Z,96.30
2019-01-10T16:13:20.551Z,97.20
2019-01-10T16:16:00.553Z,97.10
2019-01-10T16:18:28.153Z,97.60
2019-01-10T16:20:56.372Z,96.80
2019-01-10T16:23:23.439Z,96.70
2019-01-10T16:25:50.873Z,96.30
2019-01-10T16:28:19.078Z,96.70
2019-01-10T16:30:46.894Z,97.00
2019-01-10T16:33:14.890Z,97.10
2019-01-10T16:35:42.078Z,98.10
2019-01-10T16:38:09.806Z,97.90
2019-01-10T16:40:38.508Z,97.60
2019-01-10T16:43:11.731Z,97.20
2019-01-10T16:45:35.690Z,97.30
2019-01-10T16:48:03.914Z,97.20
2019-01-10T16:50:31.468Z,97.70
2019-01-10T16:52:59.144Z,98.50
2019-01-10T16:55:26.845Z,97.80
2019-01-10T16:57:54.695Z,97.50
2019-01-10T17:00:30.227Z,97.50
2019-01-10T17:02:58.019Z,97.70
2019-01-10T17:05:25.591Z,97.70
2019-01-10T17:07:53.442Z,98.00
2019-01-10T17:10:21.855Z,97.70
2019-01-10T17:13:08.547Z,98.40
2019-01-10T17:15:35.989Z,98.50
2019-01-10T17:18:03.780Z,98.40
2019-01-10T17:20:31.727Z,98.30
2019-01-10T17:22:59.607Z,98.40
2019-01-10T17:25:27.437Z,99.10
2019-01-10T17:27:54.988Z,99.40
2019-01-10T17:30:29.023Z,99.60
2019-01-10T17:32:56.424Z,99.90
2019-01-10T17:35:27.195Z,99.90
2019-01-10T17:37:54.861Z,99.90
2019-01-10T17:40:22.610Z,99.90
2019-01-10T17:42:50.589Z,99.90
2019-01-10T17:45:19.677Z,99.50
2019-01-10T17:47:46.711Z,98.90
2019-01-10T17:50:15.228Z,98.80
2019-01-10T17:52:42.584Z,98.90
2019-01-10T17:55:10.267Z,99.20
2019-01-10T17:57:37.596Z,99.20
2019-01-10T18:00:08.079Z,99.20
2019-01-10T18:02:36.269Z,99.90
2019-01-10T18:05:04.825Z,99.90
2019-01-10T18:07:32.653Z,99.90
2019-01-10T18:10:00.951Z,99.90
2019-01-10T18:12:29.026Z,99.90
2019-01-10T18:14:56.340Z,99.90
2019-01-10T18:17:23.500Z,99.90
2019-01-10T18:19:51.477Z,99.90
2019-01-10T18:22:19.345Z,99.90
2019-01-10T18:24:48.772Z,99.90
2019-01-10T18:27:17.324Z,99.90
2019-01-10T18:29:44.879Z,99.90
2019-01-10T18:32:12.244Z,99.90
2019-01-10T18:34:39.499Z,99.90
2019-01-10T18:37:07.855Z,99.90
2019-01-10T18:39:36.547Z,99.90
2019-01-10T18:42:04.213Z,99.90
2019-01-10T18:44:31.808Z,99.90
2019-01-10T18:47:00.057Z,99.90
2019-01-10T18:49:27.866Z,99.90
2019-01-10T18:51:55.731Z,99.90
2019-01-10T18:54:24.988Z,99.90
2019-01-10T18:56:52.418Z,99.90
2019-01-10T18:59:19.745Z,99.90
2019-01-10T19:01:47.167Z,99.90
2019-01-10T19:04:14.734Z,99.90
2019-01-10T19:06:41.903Z,99.90
2019-01-10T19:09:09.263Z,99.90
2019-01-10T19:11:36.711Z,99.90
2019-01-10T19:14:05.061Z,99.90
2019-01-10T19:16:32.839Z,99.90
2019-01-10T19:19:00.384Z,99.90
2019-01-10T19:21:28.417Z,99.90
2019-01-10T19:23:55.743Z,99.90
2019-01-10T19:26:22.747Z,99.90
2019-01-10T19:28:49.790Z,99.90
2019-01-10T19:31:17.802Z,99.90
2019-01-10T19:33:45.642Z,99.90
2019-01-10T19:36:13.061Z,99.90
2019-01-10T19:38:40.515Z,99.90
2019-01-10T19:41:07.917Z,99.90
2019-01-10T19:43:35.568Z,99.90
2019-01-10T19:46:03.377Z,99.90
2019-01-10T19:48:30.588Z,99.90
2019-01-10T19:50:58.505Z,99.90
2019-01-10T19:53:25.952Z,99.90
2019-01-10T19:55:53.348Z,99.90
2019-01-10T19:58:20.881Z,99.90
2019-01-10T20:00:54.156Z,99.90
2019-01-10T20:03:21.761Z,99.90
2019-01-10T20:05:49.548Z,99.90
2019-01-10T20:08:18.194Z,99.90
2019-01-10T20:10:46.942Z,99.90
2019-01-10T20:13:14.642Z,99.90
2019-01-10T20:15:43.272Z,99.90
2019-01-10T20:18:16.113Z,99.90
2019-01-10T20:20:41.960Z,99.90
2019-01-10T20:23:22.739Z,99.90
2019-01-10T20:25:50.180Z,99.90
2019-01-10T20:28:18.175Z,99.90
2019-01-10T20:30:46.619Z,99.90
2019-01-10T20:33:15.852Z,99.90
2019-01-10T20:35:43.637Z,99.90
2019-01-10T20:38:11.576Z,99.90
2019-01-10T20:40:39.521Z,99.90
2019-01-10T20:43:06.619Z,99.90
2019-01-10T20:45:33.787Z,99.90
2019-01-10T20:48:01.897Z,99.90
2019-01-10T20:50:29.576Z,99.90
2019-01-10T20:52:57.012Z,99.90
2019-01-10T20:55:25.245Z,99.90
2019-01-10T20:57:52.300Z,99.90
2019-01-10T21:00:21.056Z,99.90
2019-01-10T21:02:49.389Z,99.90
2019-01-10T21:05:16.945Z,99.90
2019-01-10T21:07:47.018Z,99.90
2019-01-10T21:10:14.852Z,99.90
2019-01-10T21:12:42.119Z,99.90
2019-01-10T21:15:12.280Z,99.90
2019-01-10T21:17:39.729Z,99.90
2019-01-10T21:20:07.695Z,99.90
2019-01-10T21:22:35.242Z,99.90
2019-01-10T21:25:02.683Z,99.90
2019-01-10T21:27:29.567Z,99.90
2019-01-10T21:29:57.103Z,99.90
2019-01-10T21:32:24.171Z,99.90
2019-01-10T21:34:51.493Z,99.90
2019-01-10T21:37:18.975Z,99.90
2019-01-10T21:39:46.369Z,99.90
2019-01-10T21:42:15.587Z,99.90
2019-01-10T21:44:43.035Z,99.90
2019-01-10T21:47:11.261Z,99.90
2019-01-10T21:49:38.764Z,99.90
2019-01-10T21:52:05.912Z,99.90
2019-01-10T21:54:34.952Z,99.90
2019-01-10T21:57:02.921Z,99.90
2019-01-10T21:59:30.164Z,99.90
2019-01-10T22:01:57.945Z,99.90
2019-01-10T22:04:25.704Z,99.90
2019-01-10T22:06:53.943Z,99.90
2019-01-10T22:09:21.092Z,99.90
2019-01-10T22:11:48.132Z,99.90
2019-01-10T22:14:15.096Z,99.90
2019-01-10T22:16:42.001Z,99.90
2019-01-10T22:19:09.488Z,99.90
2019-01-10T22:21:38.723Z,99.90
2019-01-10T22:24:06.405Z,99.90
2019-01-10T22:26:34.112Z,99.90
2019-01-10T22:29:02.072Z,99.90
2019-01-10T22:31:29.889Z,99.90
2019-01-10T22:33:57.108Z,99.90
2019-01-10T22:36:24.784Z,99.90
2019-01-10T22:38:51.709Z,99.90
2019-01-10T22:41:18.810Z,99.90
2019-01-10T22:43:46.028Z,99.90
2019-01-10T22:46:13.195Z,99.90
2019-01-10T22:48:41.282Z,99.90
2019-01-10T22:51:08.829Z,99.90
2019-01-10T22:53:36.085Z,99.90
2019-01-10T22:56:03.741Z,99.90
2019-01-10T22:58:31.101Z,99.90
2019-01-10T23:01:41.246Z,99.90
2019-01-10T23:04:11.271Z,99.90
2019-01-10T23:06:38.786Z,99.90
2019-01-10T23:09:08.961Z,99.90
2019-01-10T23:11:36.276Z,99.90
2019-01-10T23:14:05.957Z,99.90
2019-01-10T23:16:34.711Z,99.90
2019-01-10T23:19:02.172Z,99.90
2019-01-10T23:21:31.737Z,99.90
2019-01-10T23:24:10.059Z,99.90
2019-01-10T23:26:37.435Z,99.90
2019-01-10T23:29:05.172Z,99.90
2019-01-10T23:31:32.869Z,99.90
2019-01-10T23:34:09.461Z,99.90
2019-01-10T23:36:36.825Z,99.90
2019-01-10T23:39:19.154Z,99.90
2019-01-10T23:41:47.343Z,99.90
2019-01-10T23:44:14.779Z,99.90
2019-01-10T23:46:42.264Z,99.90
2019-01-10T23:49:09.851Z,99.90
2019-01-10T23:51:37.617Z,99.90
2019-01-10T23:54:04.803Z,99.90
2019-01-10T23:56:33.660Z,99.90
2019-01-10T23:59:01.229Z,99.90
